Time;durP1;ratioP1;P1;durP2;ratioP2;P2;SDS_P1;SDS_P2;PMS_P1;PMS_P2;Temp;Humidity;BMP_temperature;BMP_pressure;BME280_temperature;BME280_humidity;BME280_pressure;Samples;Min_cycle;Max_cycle;Signal;HPM_P1;HPM_P2
2022/05/13 00:00:38;;;;;;;8.95;5.57;;;;;;;;;;5051458;28;20064;-37
2022/05/13 00:03:04;;;;;;;9.65;4.78;;;;;;;;;;5051471;28;20039;-36
2022/05/13 00:05:29;;;;;;;6.63;5.53;;;;;;;;;;5051023;28;20053;-37
2022/05/13 00:07:55;;;;;;;7.28;5.43;;;;;;;;;;5051395;28;20147;-37
2022/05/13 00:10:20;;;;;;;8.88;5.15;;;;;;;;;;5051146;28;20033;-37
2022/05/13 00:12:45;;;;;;;7.57;5.30;;;;;;;;;;5051162;28;20111;-37
2022/05/13 00:15:20;;;;;;;7.00;5.15;;;;;;;;;;5051224;28;20106;-37
2022/05/13 00:17:47;;;;;;;6.30;4.78;;;;;;;;;;5051373;28;20376;-36
2022/05/13 00:20:13;;;;;;;12.10;5.35;;;;;;;;;;5053121;28;20032;-37
2022/05/13 00:22:42;;;;;;;6.03;4.75;;;;;;;;;;5055175;28;20025;-37
2022/05/13 00:25:08;;;;;;;6.45;4.20;;;;;;;;;;5055149;28;20031;-36
2022/05/13 00:27:33;;;;;;;8.20;4.80;;;;;;;;;;5055022;28;20636;-37
2022/05/13 00:29:58;;;;;;;7.05;4.47;;;;;;;;;;5037617;28;20460;-36
2022/05/13 00:32:23;;;;;;;7.63;4.10;;;;;;;;;;5055138;28;20387;-36
2022/05/13 00:34:49;;;;;;;8.88;4.40;;;;;;;;;;5054928;28;20060;-36
2022/05/13 00:37:14;;;;;;;8.27;4.72;;;;;;;;;;5054995;28;20049;-36
2022/05/13 00:39:40;;;;;;;11.82;3.78;;;;;;;;;;5054911;28;20422;-37
2022/05/13 00:42:09;;;;;;;8.45;4.00;;;;;;;;;;5054883;28;20033;-37
2022/05/13 00:44:36;;;;;;;5.75;3.70;;;;;;;;;;5054810;28;20099;-37
2022/05/13 00:47:02;;;;;;;6.57;3.58;;;;;;;;;;5037328;28;20025;-36
2022/05/13 00:49:28;;;;;;;12.18;3.50;;;;;;;;;;5054825;28;20055;-37
2022/05/13 00:51:53;;;;;;;5.35;3.13;;;;;;;;;;5054675;28;20048;-37
2022/05/13 00:54:19;;;;;;;5.15;3.70;;;;;;;;;;5036998;28;20541;-37
2022/05/13 00:56:46;;;;;;;9.10;3.50;;;;;;;;;;5054782;28;20025;-36
2022/05/13 00:59:19;;;;;;;7.03;4.10;;;;;;;;;;5054687;28;20754;-37
2022/05/13 01:01:45;;;;;;;5.90;3.38;;;;;;;;;;5054490;28;20082;-36
2022/05/13 01:04:12;;;;;;;5.15;3.75;;;;;;;;;;5054351;28;20053;-37
2022/05/13 01:06:38;;;;;;;3.53;2.85;;;;;;;;;;5054494;28;20029;-36
2022/05/13 01:09:03;;;;;;;6.80;3.28;;;;;;;;;;5054488;28;20033;-37
2022/05/13 01:11:32;;;;;;;4.65;3.55;;;;;;;;;;5054998;28;20037;-36
2022/05/13 01:13:59;;;;;;;6.68;4.55;;;;;;;;;;5054262;28;20017;-37
2022/05/13 01:16:24;;;;;;;4.78;3.67;;;;;;;;;;5054519;28;20113;-37
2022/05/13 01:18:49;;;;;;;6.45;4.38;;;;;;;;;;5054475;28;20067;-37
2022/05/13 01:21:19;;;;;;;5.88;3.97;;;;;;;;;;5054277;28;20030;-37
2022/05/13 01:23:45;;;;;;;5.57;4.15;;;;;;;;;;5054038;28;20509;-37
2022/05/13 01:26:15;;;;;;;6.57;4.20;;;;;;;;;;5054054;28;20061;-37
2022/05/13 01:28:46;;;;;;;9.57;4.35;;;;;;;;;;5054233;28;20041;-37
2022/05/13 01:31:12;;;;;;;5.88;4.30;;;;;;;;;;5052876;28;20178;-36
2022/05/13 01:33:39;;;;;;;8.30;4.78;;;;;;;;;;5053918;28;20107;-37
2022/05/13 01:36:05;;;;;;;6.75;5.40;;;;;;;;;;5054264;28;20357;-36
2022/05/13 01:38:35;;;;;;;8.45;5.43;;;;;;;;;;5053884;28;20017;-37
2022/05/13 01:41:01;;;;;;;6.57;4.43;;;;;;;;;;5053807;28;20025;-36
2022/05/13 01:43:27;;;;;;;5.28;4.20;;;;;;;;;;5053817;28;20029;-37
2022/05/13 01:45:53;;;;;;;7.82;5.07;;;;;;;;;;5036066;28;20068;-37
2022/05/13 01:48:18;;;;;;;10.75;4.90;;;;;;;;;;5053723;28;20017;-38
2022/05/13 01:50:44;;;;;;;6.45;5.00;;;;;;;;;;5053785;28;20037;-37
2022/05/13 01:53:10;;;;;;;6.15;4.93;;;;;;;;;;5053601;28;20021;-36
2022/05/13 01:55:35;;;;;;;7.97;4.82;;;;;;;;;;5053487;28;20040;-37
2022/05/13 01:58:01;;;;;;;7.85;4.25;;;;;;;;;;5035968;28;20449;-37
2022/05/13 02:00:27;;;;;;;9.38;4.65;;;;;;;;;;5053689;28;20056;-37
2022/05/13 02:05:50;;;;;;;8.32;4.30;;;;;;;;;;5030334;28;20045;-36
2022/05/13 02:08:16;;;;;;;6.43;4.13;;;;;;;;;;5053229;28;20025;-36
2022/05/13 02:10:41;;;;;;;7.13;4.57;;;;;;;;;;5053267;28;20361;-37
2022/05/13 02:13:07;;;;;;;7.82;4.78;;;;;;;;;;5035387;28;20121;-37
2022/05/13 02:15:32;;;;;;;8.05;4.95;;;;;;;;;;5053256;28;20476;-36
2022/05/13 02:17:58;;;;;;;6.65;5.03;;;;;;;;;;5053163;28;20017;-37
2022/05/13 02:20:23;;;;;;;7.22;5.53;;;;;;;;;;5035536;28;20029;-37
2022/05/13 02:22:48;;;;;;;8.65;4.65;;;;;;;;;;5052914;28;20017;-37
2022/05/13 02:25:14;;;;;;;4.88;4.38;;;;;;;;;;5053078;28;20025;-37
2022/05/13 02:27:39;;;;;;;8.88;5.85;;;;;;;;;;5053175;28;20467;-37
2022/05/13 02:30:06;;;;;;;7.60;5.47;;;;;;;;;;5052821;28;20123;-38
2022/05/13 02:32:31;;;;;;;9.23;5.68;;;;;;;;;;5052879;28;20028;-42
2022/05/13 02:34:56;;;;;;;5.40;4.53;;;;;;;;;;5052746;28;20032;-37
2022/05/13 02:37:22;;;;;;;8.43;5.75;;;;;;;;;;5053050;28;20566;-37
2022/05/13 02:39:47;;;;;;;6.47;5.15;;;;;;;;;;5052609;28;20043;-37
2022/05/13 02:42:14;;;;;;;6.72;4.50;;;;;;;;;;5052533;28;20028;-37
2022/05/13 02:44:40;;;;;;;8.88;5.10;;;;;;;;;;5034939;28;20040;-38
2022/05/13 02:47:05;;;;;;;9.50;5.07;;;;;;;;;;5052588;28;20092;-42
2022/05/13 02:49:30;;;;;;;7.45;5.28;;;;;;;;;;5052548;28;20032;-37
2022/05/13 02:51:56;;;;;;;10.48;4.70;;;;;;;;;;5052393;28;20013;-36
2022/05/13 02:54:21;;;;;;;8.63;4.55;;;;;;;;;;5052742;28;20032;-37
2022/05/13 02:56:46;;;;;;;26.80;6.45;;;;;;;;;;5034833;28;20078;-37
2022/05/13 02:59:12;;;;;;;10.50;4.78;;;;;;;;;;5052278;28;20387;-37
2022/05/13 03:01:38;;;;;;;8.60;5.05;;;;;;;;;;5052470;28;20092;-37
2022/05/13 03:04:03;;;;;;;8.43;4.85;;;;;;;;;;5052007;28;20496;-37
2022/05/13 03:06:29;;;;;;;7.57;4.60;;;;;;;;;;5052277;28;20075;-37
2022/05/13 03:08:55;;;;;;;9.50;5.60;;;;;;;;;;5052354;28;20028;-36
2022/05/13 03:11:21;;;;;;;7.72;5.25;;;;;;;;;;5052050;28;20016;-37
2022/05/13 03:13:46;;;;;;;13.48;6.05;;;;;;;;;;5052087;28;20021;-37
2022/05/13 03:16:18;;;;;;;11.65;6.95;;;;;;;;;;5052091;28;20143;-37
2022/05/13 03:18:44;;;;;;;8.30;5.25;;;;;;;;;;5017721;28;20124;-36
2022/05/13 03:21:09;;;;;;;62.97;8.43;;;;;;;;;;5034248;28;20092;-36
2022/05/13 03:23:35;;;;;;;8.02;5.22;;;;;;;;;;5051692;28;20076;-37
2022/05/13 03:26:00;;;;;;;8.57;6.15;;;;;;;;;;5051884;28;20028;-36
2022/05/13 03:28:26;;;;;;;9.55;4.75;;;;;;;;;;5051851;28;20078;-36
2022/05/13 03:30:52;;;;;;;7.40;5.82;;;;;;;;;;5051955;28;20026;-36
2022/05/13 03:33:18;;;;;;;7.90;5.93;;;;;;;;;;5051734;28;20025;-37
2022/05/13 03:35:43;;;;;;;10.52;6.43;;;;;;;;;;5051595;28;20025;-36
2022/05/13 03:38:09;;;;;;;10.07;6.78;;;;;;;;;;5051994;28;20021;-37
2022/05/13 03:40:36;;;;;;;9.20;6.00;;;;;;;;;;5051096;28;20941;-36
2022/05/13 03:43:02;;;;;;;9.77;6.25;;;;;;;;;;5051568;28;20037;-36
2022/05/13 03:45:30;;;;;;;8.65;5.35;;;;;;;;;;5051601;28;20068;-36
2022/05/13 03:47:55;;;;;;;10.63;5.53;;;;;;;;;;5051423;28;20057;-37
2022/05/13 03:50:21;;;;;;;10.15;7.45;;;;;;;;;;5051441;28;20025;-36
2022/05/13 03:52:46;;;;;;;9.05;5.53;;;;;;;;;;5051426;28;20078;-37
2022/05/13 03:55:12;;;;;;;16.58;6.72;;;;;;;;;;5050822;28;20075;-37
2022/05/13 03:57:37;;;;;;;11.30;6.00;;;;;;;;;;5051570;28;20514;-37
2022/05/13 04:00:04;;;;;;;7.00;5.13;;;;;;;;;;5051366;28;20075;-37
2022/05/13 04:02:29;;;;;;;8.55;5.85;;;;;;;;;;5051284;28;20522;-36
2022/05/13 04:10:23;;;;;;;9.43;5.68;;;;;;;;;;5051188;28;20403;-36
2022/05/13 04:18:15;;;;;;;6.78;4.68;;;;;;;;;;5051207;28;20025;-37
2022/05/13 04:20:41;;;;;;;8.43;5.07;;;;;;;;;;5051004;28;20116;-37
2022/05/13 04:23:07;;;;;;;9.00;5.65;;;;;;;;;;5050977;28;20025;-36
2022/05/13 04:25:32;;;;;;;7.15;5.90;;;;;;;;;;5051067;28;20024;-36
2022/05/13 04:27:58;;;;;;;7.43;5.40;;;;;;;;;;5033155;28;20036;-37
2022/05/13 04:30:23;;;;;;;10.02;6.10;;;;;;;;;;5051220;28;20025;-36
2022/05/13 04:32:49;;;;;;;9.45;6.57;;;;;;;;;;5050830;28;20091;-36
2022/05/13 04:35:16;;;;;;;10.75;5.80;;;;;;;;;;5051032;28;20025;-36
2022/05/13 04:37:42;;;;;;;8.23;5.22;;;;;;;;;;5050612;28;20044;-37
2022/05/13 04:40:07;;;;;;;9.55;4.85;;;;;;;;;;5033199;28;20014;-36
2022/05/13 04:42:51;;;;;;;8.15;5.47;;;;;;;;;;5051177;28;20032;-37
2022/05/13 04:45:24;;;;;;;6.45;4.75;;;;;;;;;;5050828;28;20499;-37
2022/05/13 04:50:33;;;;;;;5.18;4.43;;;;;;;;;;5050790;28;19959;-37
2022/05/13 04:52:59;;;;;;;8.27;5.80;;;;;;;;;;5050729;28;20040;-36
2022/05/13 04:55:25;;;;;;;7.25;4.88;;;;;;;;;;5051000;28;20064;-36
2022/05/13 04:57:51;;;;;;;9.07;5.10;;;;;;;;;;5050859;28;20044;-37
2022/05/13 05:00:17;;;;;;;8.32;5.90;;;;;;;;;;5050716;28;20060;-36
2022/05/13 05:02:42;;;;;;;14.40;4.55;;;;;;;;;;5050972;28;20052;-37
2022/05/13 05:05:07;;;;;;;11.07;5.68;;;;;;;;;;5050491;28;20045;-39
2022/05/13 05:07:33;;;;;;;9.40;5.13;;;;;;;;;;5054410;28;20475;-36
2022/05/13 05:09:58;;;;;;;13.05;5.18;;;;;;;;;;5054634;28;20037;-37
2022/05/13 05:12:24;;;;;;;42.88;7.50;;;;;;;;;;5054367;28;20473;-36
2022/05/13 05:14:52;;;;;;;25.80;5.90;;;;;;;;;;5054278;28;20037;-36
2022/05/13 05:17:18;;;;;;;7.93;5.45;;;;;;;;;;5054397;28;20024;-37
2022/05/13 05:19:44;;;;;;;5.80;5.10;;;;;;;;;;5054162;28;20036;-37
2022/05/13 05:22:09;;;;;;;5.70;4.70;;;;;;;;;;5054550;28;20047;-37
2022/05/13 05:24:35;;;;;;;4.55;4.13;;;;;;;;;;5036269;28;20090;-37
2022/05/13 05:27:01;;;;;;;6.00;4.25;;;;;;;;;;5052843;28;20498;-36
2022/05/13 05:29:27;;;;;;;8.43;4.63;;;;;;;;;;5054031;28;20546;-37
2022/05/13 05:31:54;;;;;;;8.13;4.80;;;;;;;;;;5053994;28;20017;-37
2022/05/13 05:34:19;;;;;;;7.15;4.85;;;;;;;;;;5036048;28;20040;-36
2022/05/13 05:36:45;;;;;;;6.28;4.35;;;;;;;;;;5053840;28;20021;-37
2022/05/13 05:39:10;;;;;;;8.07;5.68;;;;;;;;;;5054253;28;20036;-37
2022/05/13 05:41:36;;;;;;;5.78;4.55;;;;;;;;;;5053799;28;20017;-36
2022/05/13 05:44:02;;;;;;;8.93;6.15;;;;;;;;;;5053925;28;20490;-37
2022/05/13 05:46:28;;;;;;;13.40;4.97;;;;;;;;;;5053933;28;20372;-37
2022/05/13 05:48:54;;;;;;;6.07;4.43;;;;;;;;;;5053562;28;20039;-37
2022/05/13 05:51:20;;;;;;;30.83;5.55;;;;;;;;;;5053995;28;20448;-36
2022/05/13 05:59:14;;;;;;;7.88;3.72;;;;;;;;;;5053534;28;20031;-37
2022/05/13 06:01:39;;;;;;;7.03;4.68;;;;;;;;;;5053641;28;20116;-37
2022/05/13 06:04:06;;;;;;;11.60;4.90;;;;;;;;;;5053238;28;20044;-37
2022/05/13 06:06:32;;;;;;;6.85;4.85;;;;;;;;;;5053418;28;20029;-36
2022/05/13 06:08:59;;;;;;;8.30;4.68;;;;;;;;;;5053178;28;20032;-36
2022/05/13 06:11:25;;;;;;;9.23;5.63;;;;;;;;;;5053414;28;20087;-36
2022/05/13 06:13:54;;;;;;;8.20;5.28;;;;;;;;;;5035387;28;20033;-36
2022/05/13 06:16:24;;;;;;;6.20;4.65;;;;;;;;;;5053133;28;20127;-37
2022/05/13 06:18:49;;;;;;;8.45;5.38;;;;;;;;;;5052600;28;20035;-37
2022/05/13 06:21:15;;;;;;;7.50;4.78;;;;;;;;;;5053366;28;20013;-37
2022/05/13 06:23:44;;;;;;;13.05;5.30;;;;;;;;;;5052850;28;20133;-37
2022/05/13 06:26:11;;;;;;;7.10;4.88;;;;;;;;;;5053067;28;20064;-36
2022/05/13 06:28:37;;;;;;;8.20;5.55;;;;;;;;;;5052985;28;20040;-36
2022/05/13 06:31:03;;;;;;;12.55;4.95;;;;;;;;;;5052786;28;20017;-36
2022/05/13 06:33:29;;;;;;;6.90;4.65;;;;;;;;;;5052787;28;20041;-36
2022/05/13 06:35:54;;;;;;;7.40;4.82;;;;;;;;;;5052723;28;20021;-37
2022/05/13 06:38:21;;;;;;;9.85;4.97;;;;;;;;;;5052692;28;20044;-37
2022/05/13 06:40:50;;;;;;;7.70;5.85;;;;;;;;;;5052641;28;20427;-37
2022/05/13 06:43:17;;;;;;;7.60;4.63;;;;;;;;;;5052625;28;20171;-37
2022/05/13 06:45:43;;;;;;;5.95;4.40;;;;;;;;;;5052788;28;20078;-36
2022/05/13 06:48:08;;;;;;;6.25;4.90;;;;;;;;;;5052826;28;20079;-37
2022/05/13 06:50:36;;;;;;;7.40;4.30;;;;;;;;;;5052572;28;20793;-36
2022/05/13 06:53:02;;;;;;;7.75;4.93;;;;;;;;;;5052312;28;20037;-36
2022/05/13 06:55:28;;;;;;;7.32;5.22;;;;;;;;;;5052576;28;20028;-37
2022/05/13 06:57:56;;;;;;;8.55;5.00;;;;;;;;;;5052432;28;20036;-37
2022/05/13 07:00:22;;;;;;;6.90;5.13;;;;;;;;;;5052531;28;20025;-37
2022/05/13 07:02:47;;;;;;;6.53;4.38;;;;;;;;;;5050937;28;20021;-37
2022/05/13 07:05:14;;;;;;;6.70;5.13;;;;;;;;;;5052061;28;20045;-37
2022/05/13 07:07:41;;;;;;;7.10;5.35;;;;;;;;;;5052121;28;20102;-37
2022/05/13 07:10:08;;;;;;;8.45;4.93;;;;;;;;;;5052258;28;20048;-36
2022/05/13 07:12:34;;;;;;;11.73;4.47;;;;;;;;;;5052421;28;20059;-37
2022/05/13 07:15:02;;;;;;;7.43;4.78;;;;;;;;;;5052046;28;20447;-37
2022/05/13 07:17:27;;;;;;;5.63;4.72;;;;;;;;;;5051892;28;20079;-37
2022/05/13 07:19:53;;;;;;;6.97;4.75;;;;;;;;;;5051984;28;20021;-37
2022/05/13 07:22:20;;;;;;;11.18;4.60;;;;;;;;;;5052040;28;20021;-36
2022/05/13 07:24:46;;;;;;;6.93;5.05;;;;;;;;;;5051783;28;20558;-37
2022/05/13 07:27:12;;;;;;;11.23;5.22;;;;;;;;;;5051921;28;20036;-37
2022/05/13 07:29:41;;;;;;;10.88;4.80;;;;;;;;;;5050927;28;20020;-37
2022/05/13 07:32:09;;;;;;;6.07;4.80;;;;;;;;;;5051816;28;20471;-38
2022/05/13 07:34:35;;;;;;;8.98;4.45;;;;;;;;;;5051700;28;20468;-37
2022/05/13 07:37:01;;;;;;;9.60;5.05;;;;;;;;;;5051708;28;20032;-37
2022/05/13 07:42:12;;;;;;;9.32;4.25;;;;;;;;;;5051733;28;20025;-37
2022/05/13 07:44:40;;;;;;;6.00;3.97;;;;;;;;;;5051491;28;20032;-38
2022/05/13 07:47:07;;;;;;;6.30;4.00;;;;;;;;;;5051561;28;20025;-36
2022/05/13 07:49:34;;;;;;;8.02;4.18;;;;;;;;;;5051701;28;20066;-38
2022/05/13 07:52:00;;;;;;;6.40;4.65;;;;;;;;;;5051406;28;20063;-37
2022/05/13 07:54:29;;;;;;;6.28;4.97;;;;;;;;;;5051555;28;20025;-37
2022/05/13 07:56:55;;;;;;;9.23;3.38;;;;;;;;;;5051521;28;20368;-37
2022/05/13 07:59:20;;;;;;;9.00;4.63;;;;;;;;;;5051679;28;20732;-37
2022/05/13 08:01:46;;;;;;;6.10;3.95;;;;;;;;;;5051543;28;20036;-37
2022/05/13 08:04:12;;;;;;;9.55;4.63;;;;;;;;;;5029883;28;20470;-37
2022/05/13 08:06:39;;;;;;;5.72;4.80;;;;;;;;;;5031517;28;20029;-37
2022/05/13 08:09:04;;;;;;;5.47;4.82;;;;;;;;;;5031619;28;20037;-42
2022/05/13 08:11:30;;;;;;;12.30;5.05;;;;;;;;;;5031349;28;20464;-37
2022/05/13 08:13:59;;;;;;;6.93;3.60;;;;;;;;;;5031550;28;20024;-37
2022/05/13 08:16:26;;;;;;;5.82;4.03;;;;;;;;;;5031538;28;20057;-37
2022/05/13 08:18:53;;;;;;;7.28;3.45;;;;;;;;;;5031215;28;20357;-37
2022/05/13 08:21:19;;;;;;;6.47;4.07;;;;;;;;;;5031178;28;20030;-37
2022/05/13 08:23:45;;;;;;;10.40;3.45;;;;;;;;;;5031114;28;20036;-36
2022/05/13 08:26:11;;;;;;;8.68;4.70;;;;;;;;;;5031477;28;20428;-37
2022/05/13 08:28:38;;;;;;;6.90;3.88;;;;;;;;;;5031416;28;20025;-37
2022/05/13 08:31:04;;;;;;;6.60;3.40;;;;;;;;;;5031325;28;20076;-37
2022/05/13 08:33:30;;;;;;;4.82;3.95;;;;;;;;;;5031169;28;20018;-37
2022/05/13 08:35:57;;;;;;;13.30;4.13;;;;;;;;;;5030984;28;20377;-37
2022/05/13 08:38:24;;;;;;;6.80;3.92;;;;;;;;;;5031046;28;20189;-37
2022/05/13 08:40:50;;;;;;;9.45;4.28;;;;;;;;;;5032264;28;20034;-37
2022/05/13 08:43:18;;;;;;;5.15;3.40;;;;;;;;;;5035074;28;20464;-37
2022/05/13 08:45:49;;;;;;;4.85;3.58;;;;;;;;;;5034861;28;20038;-37
2022/05/13 08:48:17;;;;;;;7.75;4.18;;;;;;;;;;5035353;28;20045;-37
2022/05/13 08:51:03;;;;;;;4.65;3.50;;;;;;;;;;5034923;28;20414;-37
2022/05/13 08:53:40;;;;;;;6.45;3.97;;;;;;;;;;5034769;28;20503;-37
2022/05/13 08:56:08;;;;;;;6.63;3.90;;;;;;;;;;5034859;28;20084;-37
2022/05/13 08:58:40;;;;;;;5.65;3.70;;;;;;;;;;5035050;28;20017;-37
2022/05/13 09:01:09;;;;;;;7.30;3.63;;;;;;;;;;5034613;28;20025;-37
2022/05/13 09:03:35;;;;;;;5.13;3.05;;;;;;;;;;5038148;28;20049;-37
2022/05/13 09:06:03;;;;;;;7.82;4.75;;;;;;;;;;5054427;28;20037;-37
2022/05/13 09:08:29;;;;;;;5.45;4.38;;;;;;;;;;5054498;28;20021;-37
2022/05/13 09:11:16;;;;;;;10.82;3.47;;;;;;;;;;5054525;28;20041;-37
2022/05/13 09:14:01;;;;;;;6.20;4.20;;;;;;;;;;5054268;28;20111;-36
2022/05/13 09:16:41;;;;;;;7.15;4.35;;;;;;;;;;5054321;28;20029;-37
2022/05/13 09:19:14;;;;;;;7.45;3.88;;;;;;;;;;5054382;28;20049;-37
2022/05/13 09:21:43;;;;;;;4.05;3.10;;;;;;;;;;5054179;28;20082;-37
2022/05/13 09:24:10;;;;;;;7.82;3.60;;;;;;;;;;5054214;28;20033;-36
2022/05/13 09:26:38;;;;;;;11.27;3.78;;;;;;;;;;5054424;28;20025;-38
2022/05/13 09:29:10;;;;;;;4.97;3.75;;;;;;;;;;5054030;28;20495;-37
2022/05/13 09:31:44;;;;;;;8.05;3.85;;;;;;;;;;5054235;28;20029;-38
2022/05/13 09:34:15;;;;;;;7.70;3.22;;;;;;;;;;5054285;28;20033;-37
2022/05/13 09:36:41;;;;;;;5.60;2.92;;;;;;;;;;5054130;28;20036;-37
2022/05/13 09:39:17;;;;;;;12.38;3.95;;;;;;;;;;5054204;28;20020;-37
2022/05/13 09:41:42;;;;;;;5.22;3.42;;;;;;;;;;5054159;28;20375;-37
2022/05/13 09:44:26;;;;;;;4.53;3.10;;;;;;;;;;5053953;28;20029;-37
2022/05/13 09:47:08;;;;;;;4.70;3.08;;;;;;;;;;5053762;28;20074;-37
2022/05/13 09:49:38;;;;;;;8.02;2.95;;;;;;;;;;5053683;28;20044;-40
2022/05/13 09:52:11;;;;;;;6.10;3.45;;;;;;;;;;5053118;28;20074;-37
2022/05/13 09:54:36;;;;;;;;;;;;;;;;;;5054070;28;20029;-37
2022/05/13 09:57:04;;;;;;;11.27;3.45;;;;;;;;;;5053520;28;20035;-37
2022/05/13 09:59:34;;;;;;;7.30;2.60;;;;;;;;;;5053819;28;20391;-37
2022/05/13 10:02:13;;;;;;;7.15;2.97;;;;;;;;;;5053503;28;20103;-37
2022/05/13 10:04:38;;;;;;;6.28;3.00;;;;;;;;;;5053304;28;20532;-37
2022/05/13 10:07:05;;;;;;;3.00;2.70;;;;;;;;;;5053434;28;20052;-37
2022/05/13 10:15:25;;;;;;;6.00;2.55;;;;;;;;;;5053288;28;20039;-37
2022/05/13 10:17:55;;;;;;;4.15;2.95;;;;;;;;;;5053429;28;20028;-37
2022/05/13 10:20:26;;;;;;;5.43;3.40;;;;;;;;;;5053139;28;20027;-37
2022/05/13 10:23:20;;;;;;;5.20;2.92;;;;;;;;;;5053082;28;20041;-37
2022/05/13 10:26:06;;;;;;;4.78;2.65;;;;;;;;;;5035655;28;20049;-37
2022/05/13 10:28:35;;;;;;;3.95;2.83;;;;;;;;;;5052624;28;20076;-37
2022/05/13 10:31:08;;;;;;;11.18;2.78;;;;;;;;;;5052723;28;20052;-38
2022/05/13 10:33:41;;;;;;;5.63;3.45;;;;;;;;;;5052895;28;20108;-37
2022/05/13 10:36:12;;;;;;;3.92;3.33;;;;;;;;;;5052974;28;20032;-37
2022/05/13 10:38:44;;;;;;;6.72;2.95;;;;;;;;;;5053148;28;20021;-37
2022/05/13 10:41:15;;;;;;;6.13;2.78;;;;;;;;;;5052825;28;20040;-37
2022/05/13 10:43:44;;;;;;;6.28;3.13;;;;;;;;;;5052776;28;20079;-37
2022/05/13 10:46:24;;;;;;;5.25;3.25;;;;;;;;;;5052900;28;20044;-37
2022/05/13 10:48:51;;;;;;;6.20;3.10;;;;;;;;;;5052605;28;20047;-38
2022/05/13 10:51:20;;;;;;;4.60;3.03;;;;;;;;;;5052618;28;20025;-37
2022/05/13 10:53:55;;;;;;;4.35;3.20;;;;;;;;;;5052672;28;20021;-37
2022/05/13 10:56:21;;;;;;;5.25;2.85;;;;;;;;;;5052609;28;20078;-37
2022/05/13 10:59:05;;;;;;;11.48;3.63;;;;;;;;;;5052246;28;20025;-37
2022/05/13 11:01:49;;;;;;;5.55;3.53;;;;;;;;;;5034568;28;20043;-37
2022/05/13 11:04:33;;;;;;;3.33;3.03;;;;;;;;;;5052065;28;20049;-37
2022/05/13 11:07:01;;;;;;;3.50;2.65;;;;;;;;;;5052253;28;20037;-37
2022/05/13 11:09:36;;;;;;;4.55;3.13;;;;;;;;;;5052362;28;20029;-37
2022/05/13 11:12:07;;;;;;;4.13;2.88;;;;;;;;;;5052163;28;20035;-37
2022/05/13 11:14:38;;;;;;;6.20;3.45;;;;;;;;;;5052096;28;20040;-37
2022/05/13 11:17:27;;;;;;;4.43;2.72;;;;;;;;;;5052009;28;20029;-37
2022/05/13 11:20:11;;;;;;;3.42;2.65;;;;;;;;;;5014218;28;20507;-37
2022/05/13 11:22:39;;;;;;;5.30;2.85;;;;;;;;;;5052171;28;20025;-38
2022/05/13 11:28:01;;;;;;;4.57;2.55;;;;;;;;;;5052178;28;20033;-37
2022/05/13 11:30:35;;;;;;;6.82;3.08;;;;;;;;;;5051875;28;20047;-37
2022/05/13 11:33:08;;;;;;;4.07;3.20;;;;;;;;;;5051755;28;20111;-37
2022/05/13 11:35:38;;;;;;;11.00;3.90;;;;;;;;;;5051766;28;20029;-37
2022/05/13 11:38:08;;;;;;;5.22;3.28;;;;;;;;;;5051566;28;20454;-37
2022/05/13 11:40:42;;;;;;;7.05;2.80;;;;;;;;;;5051662;28;20117;-37
2022/05/13 11:43:21;;;;;;;7.50;3.05;;;;;;;;;;5051578;28;20121;-37
2022/05/13 11:45:47;;;;;;;2.58;2.30;;;;;;;;;;5051515;28;20052;-38
2022/05/13 11:48:13;;;;;;;2.80;2.53;;;;;;;;;;5051522;28;20021;-37
2022/05/13 11:50:38;;;;;;;6.55;3.35;;;;;;;;;;5051396;28;20128;-37
2022/05/13 11:53:07;;;;;;;6.45;3.40;;;;;;;;;;5051404;28;20113;-37
2022/05/13 11:55:41;;;;;;;12.35;4.15;;;;;;;;;;5051477;28;20120;-37
2022/05/13 11:58:08;;;;;;;6.43;3.03;;;;;;;;;;5051280;28;20083;-37
2022/05/13 12:00:36;;;;;;;4.28;3.25;;;;;;;;;;5051367;28;20036;-37
2022/05/13 12:03:07;;;;;;;4.75;2.97;;;;;;;;;;5051282;28;20029;-37
2022/05/13 12:05:37;;;;;;;9.88;3.55;;;;;;;;;;5051112;28;20049;-37
2022/05/13 12:08:03;;;;;;;7.32;3.08;;;;;;;;;;5051253;28;20048;-37
2022/05/13 12:10:40;;;;;;;6.22;2.75;;;;;;;;;;5051223;28;20434;-37
2022/05/13 12:13:12;;;;;;;7.30;3.85;;;;;;;;;;5051079;28;20031;-37
2022/05/13 12:15:50;;;;;;;5.57;3.40;;;;;;;;;;5050981;28;20052;-37
2022/05/13 12:18:34;;;;;;;5.28;2.75;;;;;;;;;;5051282;28;20025;-37
2022/05/13 12:21:00;;;;;;;2.13;1.90;;;;;;;;;;5051089;28;20029;-37
2022/05/13 12:23:40;;;;;;;3.85;2.55;;;;;;;;;;5051099;28;20020;-37
2022/05/13 12:26:08;;;;;;;5.03;2.80;;;;;;;;;;5051068;28;20099;-37
2022/05/13 12:28:39;;;;;;;6.32;2.83;;;;;;;;;;5050967;28;20376;-38
2022/05/13 12:31:23;;;;;;;6.93;2.70;;;;;;;;;;5051074;28;20500;-37
2022/05/13 12:37:33;;;;;;;3.40;2.67;;;;;;;;;;5032916;28;20463;-37
2022/05/13 12:39:46;;;;;;;4.28;3.15;;;;;;;;;;5051062;28;20039;-37
2022/05/13 12:42:12;;;;;;;6.03;2.97;;;;;;;;;;5051058;28;20549;-37
2022/05/13 12:44:45;;;;;;;4.03;2.55;;;;;;;;;;5050822;28;20040;-37
2022/05/13 12:47:17;;;;;;;4.43;3.08;;;;;;;;;;5050899;28;20029;-37
2022/05/13 12:49:48;;;;;;;4.60;2.45;;;;;;;;;;5050953;28;20099;-37
2022/05/13 12:52:14;;;;;;;6.78;2.90;;;;;;;;;;5050897;28;20033;-37
2022/05/13 12:54:58;;;;;;;4.25;2.25;;;;;;;;;;5050908;28;20017;-37
2022/05/13 12:57:30;;;;;;;3.95;2.60;;;;;;;;;;5050963;28;20051;-36
2022/05/13 12:59:55;;;;;;;3.63;2.53;;;;;;;;;;5050691;28;20056;-37
2022/05/13 13:02:27;;;;;;;5.57;3.05;;;;;;;;;;5050726;28;20422;-37
2022/05/13 13:04:54;;;;;;;5.55;3.20;;;;;;;;;;5050470;28;20052;-37
2022/05/13 13:07:21;;;;;;;4.72;2.75;;;;;;;;;;5050650;28;20066;-37
2022/05/13 13:09:49;;;;;;;3.42;2.45;;;;;;;;;;5050807;28;20025;-37
2022/05/13 13:12:18;;;;;;;4.15;2.97;;;;;;;;;;5050756;28;20495;-37
2022/05/13 13:14:48;;;;;;;4.95;2.10;;;;;;;;;;5050708;28;20037;-37
2022/05/13 13:17:27;;;;;;;13.70;3.13;;;;;;;;;;5050617;28;20609;-37
2022/05/13 13:19:58;;;;;;;3.28;2.97;;;;;;;;;;5050792;28;20025;-37
2022/05/13 13:22:23;;;;;;;4.43;2.70;;;;;;;;;;5050619;28;20044;-37
2022/05/13 13:24:49;;;;;;;8.73;3.78;;;;;;;;;;5032610;28;20033;-37
2022/05/13 13:27:16;;;;;;;4.70;2.55;;;;;;;;;;5050940;28;20031;-37
2022/05/13 13:29:43;;;;;;;4.22;2.25;;;;;;;;;;5054306;28;20055;-37
2022/05/13 13:32:13;;;;;;;4.35;2.50;;;;;;;;;;5054376;28;20028;-37
2022/05/13 13:34:39;;;;;;;5.05;2.35;;;;;;;;;;5054283;28;20032;-38
2022/05/13 13:37:07;;;;;;;10.07;3.00;;;;;;;;;;5053965;28;20379;-37
2022/05/13 13:39:33;;;;;;;4.03;2.25;;;;;;;;;;5053915;28;20029;-37
2022/05/13 13:42:01;;;;;;;7.13;2.75;;;;;;;;;;5053856;28;20105;-38
2022/05/13 13:44:27;;;;;;;6.18;3.67;;;;;;;;;;5053871;28;20036;-37
2022/05/13 13:46:52;;;;;;;3.22;2.60;;;;;;;;;;5053729;28;20017;-37
2022/05/13 13:49:37;;;;;;;5.47;2.72;;;;;;;;;;5053739;28;20472;-37
2022/05/13 13:52:05;;;;;;;5.63;2.53;;;;;;;;;;5053598;28;20037;-37
2022/05/13 13:54:45;;;;;;;8.35;3.22;;;;;;;;;;5035798;28;20387;-37
2022/05/13 13:57:17;;;;;;;6.32;3.00;;;;;;;;;;5053658;28;20115;-37
2022/05/13 14:00:01;;;;;;;4.45;2.40;;;;;;;;;;5053454;28;20029;-37
2022/05/13 14:02:37;;;;;;;9.15;3.28;;;;;;;;;;5053679;28;20025;-37
2022/05/13 14:05:09;;;;;;;4.60;2.88;;;;;;;;;;5053268;28;20049;-37
2022/05/13 14:07:36;;;;;;;5.75;2.80;;;;;;;;;;5053368;28;20491;-37
2022/05/13 14:10:04;;;;;;;4.25;2.63;;;;;;;;;;5053307;28;20467;-38
2022/05/13 14:12:30;;;;;;;5.85;2.40;;;;;;;;;;5053529;28;20475;-37
2022/05/13 14:14:59;;;;;;;6.40;3.05;;;;;;;;;;5053160;28;20043;-37
2022/05/13 14:17:26;;;;;;;4.38;3.10;;;;;;;;;;5053258;28;20059;-37
2022/05/13 14:20:07;;;;;;;4.53;2.80;;;;;;;;;;5053419;28;20024;-38
2022/05/13 14:22:52;;;;;;;3.22;2.67;;;;;;;;;;5053185;28;20106;-37
2022/05/13 14:25:18;;;;;;;5.00;2.90;;;;;;;;;;5053036;28;20119;-37
2022/05/13 14:27:43;;;;;;;5.60;2.72;;;;;;;;;;5053044;28;20151;-37
2022/05/13 14:30:10;;;;;;;6.13;2.60;;;;;;;;;;5052971;28;20112;-37
2022/05/13 14:32:37;;;;;;;6.05;3.50;;;;;;;;;;5052980;28;20019;-37
2022/05/13 14:35:27;;;;;;;3.60;3.05;;;;;;;;;;5053237;28;20052;-37
2022/05/13 14:37:53;;;;;;;4.70;2.90;;;;;;;;;;5042295;28;20120;-37
2022/05/13 14:40:21;;;;;;;3.78;3.20;;;;;;;;;;5052771;28;20103;-37
2022/05/13 14:42:59;;;;;;;4.32;2.92;;;;;;;;;;5052668;28;20033;-37
2022/05/13 14:45:27;;;;;;;4.60;2.58;;;;;;;;;;5052756;28;20055;-37
2022/05/13 14:48:09;;;;;;;3.63;3.13;;;;;;;;;;5052610;28;20020;-37
2022/05/13 14:50:37;;;;;;;3.30;2.38;;;;;;;;;;5052893;28;20418;-37
2022/05/13 14:53:14;;;;;;;4.80;2.90;;;;;;;;;;5052753;28;20086;-37
2022/05/13 14:55:43;;;;;;;7.10;2.50;;;;;;;;;;5052540;28;20025;-36
2022/05/13 14:58:23;;;;;;;4.13;3.05;;;;;;;;;;5052655;28;20143;-37
2022/05/13 15:00:50;;;;;;;7.82;2.53;;;;;;;;;;5052399;28;20497;-38
2022/05/13 15:03:29;;;;;;;8.32;3.53;;;;;;;;;;5052182;28;20025;-38
2022/05/13 15:05:54;;;;;;;5.32;3.05;;;;;;;;;;5052330;28;20080;-38
2022/05/13 15:08:23;;;;;;;7.13;2.90;;;;;;;;;;5052230;28;20071;-37
2022/05/13 15:10:49;;;;;;;4.25;3.00;;;;;;;;;;5052385;28;20097;-37
2022/05/13 15:13:14;;;;;;;5.53;2.63;;;;;;;;;;5052250;28;20467;-37
2022/05/13 15:15:41;;;;;;;8.70;2.80;;;;;;;;;;5052108;28;20033;-37
2022/05/13 15:18:11;;;;;;;4.22;3.40;;;;;;;;;;5052422;28;20092;-37
2022/05/13 15:20:36;;;;;;;6.10;2.95;;;;;;;;;;5052025;28;20029;-37
2022/05/13 15:23:01;;;;;;;7.10;3.20;;;;;;;;;;5034219;28;20375;-37
2022/05/13 15:25:27;;;;;;;6.05;3.38;;;;;;;;;;5051823;28;20041;-37